Flight Track Log - Related Links

Times and Time Zones

All times are in EDT time to prevent confusion due to time zone crossing. See the SKW5550 flight status page for this flight to view local times or setup timezone preferences in your user account.

Time Position Orientation Groundspeed Altitude Reporting Facility
EDT Latitude Longitude Course Direction KTS MPH feet Rate Location/Type
Sun 08:17:00 AM 44.1322 -108.6736 159° South  Level FlightAware Approximate
Sun 08:18:00 AM 44.0224 -108.6137 159° South  Level FlightAware Approximate
Sun 08:19:00 AM 43.9131 -108.5520 157° South  Level FlightAware Approximate
Sun 08:19:33 AM 44.4486 -108.8661 142° Southeast 290 334 14,100  Level Salt Lake Center
Sun 08:20:00 AM 43.8044 -108.4886 157° South  Level FlightAware Approximate
Sun 08:20:33 AM 44.3636 -108.8161 157° South 338 389 15,300  Level Salt Lake Center
Sun 08:21:00 AM 43.6955 -108.4259 157° South  Level FlightAware Approximate
Sun 08:21:34 AM 44.2583 -108.7536 157° South 352 405 16,500  Level Salt Lake Center
Sun 08:22:00 AM 43.5865 -108.3636 158° South  Level FlightAware Approximate
Sun 08:22:34 AM 44.1639 -108.6978 157° South 366 421 18,000  Level Salt Lake Center
Sun 08:23:00 AM 43.4779 -108.3001 156° South  Level FlightAware Approximate
Sun 08:23:34 AM 44.0667 -108.6425 158° South 378 435 19,200  Level Salt Lake Center
Sun 08:24:00 AM 43.3815 -108.2084 142° Southeast  Level FlightAware Approximate
Sun 08:24:35 AM 43.9686 -108.5844 157° South 388 447 20,300  Level Salt Lake Center
Sun 08:25:35 AM 43.8467 -108.5189 159° South 410 472 21,300 1,050 Climbing Salt Lake Center
Sun 08:26:35 AM 43.7406 -108.4581 157° South 422 486 22,400 942 Climbing Salt Lake Center
Sun 08:27:36 AM 43.6369 -108.3986 157° South 423 487 23,200 694 Climbing Salt Lake Center
Sun 08:28:36 AM 43.5303 -108.3392 158° South 429 494 23,800 694 Climbing Salt Lake Center
Sun 08:29:37 AM 43.4122 -108.2472 150° Southeast 439 505 24,600 793 Climbing Salt Lake Center
Sun 08:30:37 AM 43.3164 -108.1453 142° Southeast 452 520 25,400 700 Climbing Salt Lake Center
Sun 08:31:37 AM 43.2194 -108.0422 142° Southeast 457 526 26,000 744 Climbing Salt Lake Center
Sun 08:32:38 AM 43.1069 -107.9236 142° Southeast 457 526 26,900 744 Climbing Salt Lake Center
Sun 08:33:38 AM 43.0114 -107.8242 143° Southeast 453 521 27,500 500 Climbing Salt Lake Center
Sun 08:34:38 AM 42.9164 -107.7222 142° Southeast 453 521 27,900 446 Climbing Salt Lake Center
Sun 08:35:39 AM 42.8194 -107.6211 143° Southeast 457 526 28,400 446 Climbing Salt Lake Center
Sun 08:36:39 AM 42.7058 -107.5036 143° Southeast 458 527 28,800 595 Climbing Salt Lake Center
Sun 08:37:40 AM 42.6097 -107.4039 143° Southeast 455 524 29,600 645 Climbing Salt Lake Center
Sun 08:38:40 AM 42.5103 -107.3031 143° Southeast 454 522 30,100 550 Climbing Denver Center
Sun 08:39:40 AM 42.3997 -107.1886 143° Southeast 450 518 30,700 446 Climbing Denver Center
Sun 08:40:41 AM 42.3022 -107.0906 143° Southeast 451 519 31,000 148 Climbing Denver Center
Sun 08:41:42 AM 42.2044 -106.9917 143° Southeast 457 526 31,000  Level Denver Center
Sun 08:42:42 AM 42.0900 -106.8756 143° Southeast 460 529 31,000  Level Denver Center
Sun 08:43:43 AM 41.9900 -106.7733 143° Southeast 467 537 31,000  Level Denver Center
Sun 08:44:44 AM 41.8922 -106.6697 142° Southeast 468 539 31,000  Level Denver Center
Sun 08:45:44 AM 41.7769 -106.5503 142° Southeast 468 539 31,000  Level Denver Center
Sun 08:46:45 AM 41.6769 -106.4456 142° Southeast 471 542 31,000  Level Denver Center
Sun 08:47:46 AM 41.5778 -106.3428 142° Southeast 471 542 31,000  Level Denver Center
Sun 08:48:46 AM 41.4786 -106.2403 142° Southeast 472 543 31,000  Level Denver Center
Sun 08:49:47 AM 41.3633 -106.1217 142° Southeast 471 542 31,000  Level Denver Center
Sun 08:50:48 AM 41.2633 -106.0183 142° Southeast 474 545 31,000  Level Denver Center
Sun 08:51:49 AM 41.1631 -105.9161 142° Southeast 476 548 31,000  Level Denver Center
Sun 08:52:49 AM 41.0478 -105.7986 142° Southeast 471 542 31,000 -50 Level Denver Center
Sun 08:53:50 AM 40.9442 -105.6933 142° Southeast 473 544 30,900 -1,131 Descending Denver Center
Sun 08:54:51 AM 40.8375 -105.5861 143° Southeast 479 551 28,700 -2,182 Descending Denver Center
Sun 08:55:51 AM 40.7369 -105.4844 143° Southeast 462 532 26,500 -1,934 Descending Denver Center
Sun 08:56:52 AM 40.6583 -105.4039 142° Southeast 452 520 24,800 -1,967 Descending Denver Center
Sun 08:57:53 AM 40.5442 -105.2889 143° Southeast 433 498 22,500 -2,361 Descending Denver Center
Sun 08:58:54 AM 40.4408 -105.1914 144° Southeast 426 490 20,000 -3,174 Descending Denver Center
Sun 08:59:54 AM 40.3994 -105.0467 111° Southeast 431 496 16,100 -3,372 Descending Denver Center
Sun 09:00:55 AM 40.3692 -104.9047 106° East 407 468 13,200 -1,574 Descending Denver Center
Sun 09:01:56 AM 40.3397 -104.7908 109° East 342 394 12,900 -787 Descending Denver Center
Sun 09:02:57 AM 40.2589 -104.7419 155° Southeast 334 384 11,600 -1,587 Descending Denver Center
Sun 09:03:57 AM 40.1614 -104.7258 173° South 327 376 9,700 -1,736 Descending Denver Center
Sun 09:04:58 AM 40.0806 -104.7125 173° South 297 342 8,100 -1,574 Descending Denver Center

Login

Don't have an account? Register now (free) for customized features, flight alerts, and more!